createdAt,value
2022-09-14T00:00:58.495Z,19.90
2022-09-14T00:03:33.842Z,19.65
2022-09-14T00:06:05.602Z,21.48
2022-09-14T00:08:32.004Z,22.17
2022-09-14T00:10:58.211Z,24.17
2022-09-14T00:13:24.434Z,19.83
2022-09-14T00:15:52.033Z,20.35
2022-09-14T00:18:18.293Z,21.20
2022-09-14T00:20:44.454Z,21.35
2022-09-14T00:23:10.756Z,21.85
2022-09-14T00:25:37.003Z,24.50
2022-09-14T00:28:03.636Z,27.73
2022-09-14T00:30:29.937Z,26.88
2022-09-14T00:32:56.143Z,28.88
2022-09-14T00:35:22.600Z,29.42
2022-09-14T00:37:49.345Z,26.38
2022-09-14T00:40:15.704Z,27.35
2022-09-14T00:42:41.924Z,29.33
2022-09-14T00:45:14.122Z,27.88
2022-09-14T00:47:40.774Z,30.92
2022-09-14T00:50:07.298Z,33.50
2022-09-14T00:52:34.801Z,32.83
2022-09-14T00:55:06.046Z,36.88
2022-09-14T00:57:35.656Z,31.05
2022-09-14T01:00:04.542Z,33.55
2022-09-14T01:02:30.830Z,34.75
2022-09-14T01:04:57.315Z,39.70
2022-09-14T01:07:42.995Z,39.53
2022-09-14T01:10:27.890Z,38.80
2022-09-14T01:13:10.439Z,40.22
2022-09-14T01:15:55.276Z,41.22
2022-09-14T01:18:27.712Z,36.03
2022-09-14T01:21:00.899Z,44.70
2022-09-14T01:23:36.176Z,41.08
2022-09-14T01:26:21.128Z,43.00
2022-09-14T01:28:56.582Z,41.17
2022-09-14T01:31:41.616Z,41.58
2022-09-14T01:34:07.817Z,41.22
2022-09-14T01:36:35.659Z,41.97
2022-09-14T01:39:02.377Z,44.05
2022-09-14T01:41:31.280Z,41.83
2022-09-14T01:44:08.905Z,43.97
2022-09-14T01:46:39.754Z,42.08
2022-09-14T01:49:14.052Z,46.70
2022-09-14T01:51:43.112Z,45.78
2022-09-14T01:54:13.312Z,49.80
2022-09-14T01:56:42.175Z,52.28
2022-09-14T01:59:11.914Z,50.85
2022-09-14T02:01:41.146Z,46.03
2022-09-14T02:04:10.287Z,45.38
2022-09-14T02:06:41.236Z,41.85
2022-09-14T02:09:09.041Z,50.28
2022-09-14T02:11:35.451Z,38.55
2022-09-14T02:14:01.853Z,47.10
2022-09-14T02:16:28.193Z,39.35
2022-09-14T02:18:54.812Z,42.92
2022-09-14T02:21:26.211Z,36.65
2022-09-14T02:23:52.762Z,39.55
2022-09-14T02:26:19.743Z,36.45
2022-09-14T02:28:46.068Z,26.20
2022-09-14T02:31:15.761Z,25.92
2022-09-14T02:33:53.077Z,24.23
2022-09-14T02:36:23.683Z,24.27
2022-09-14T02:38:52.565Z,26.70
2022-09-14T02:41:25.194Z,25.60
2022-09-14T02:44:15.763Z,20.88
2022-09-14T02:46:42.016Z,21.33
2022-09-14T02:49:18.432Z,23.00
2022-09-14T02:51:44.621Z,19.42
2022-09-14T02:54:29.692Z,20.77
2022-09-14T02:56:59.508Z,24.60
2022-09-14T02:59:25.701Z,23.67
2022-09-14T03:01:51.988Z,25.45
2022-09-14T03:04:18.200Z,24.52
2022-09-14T03:06:44.624Z,25.63
2022-09-14T03:09:10.828Z,28.73
2022-09-14T03:11:37.031Z,24.08
2022-09-14T03:14:03.224Z,24.02
2022-09-14T03:16:29.482Z,27.10
2022-09-14T03:18:55.714Z,28.70
2022-09-14T03:21:22.388Z,26.85
2022-09-14T03:23:49.723Z,28.17
2022-09-14T03:26:17.127Z,31.02
2022-09-14T03:28:43.879Z,36.30
2022-09-14T03:31:11.316Z,33.55
2022-09-14T03:33:37.654Z,35.05
2022-09-14T03:36:14.218Z,35.83
2022-09-14T03:38:44.467Z,36.95
2022-09-14T03:41:11.338Z,31.42
2022-09-14T03:43:37.835Z,32.60
2022-09-14T03:46:23.248Z,31.13
2022-09-14T03:48:49.839Z,33.25
2022-09-14T03:51:16.370Z,32.47
2022-09-14T03:53:43.299Z,30.45
2022-09-14T03:56:15.186Z,29.83
2022-09-14T03:58:41.749Z,29.98
2022-09-14T04:01:09.487Z,30.58
2022-09-14T04:03:35.930Z,27.50
2022-09-14T04:06:05.212Z,28.67
2022-09-14T04:08:32.454Z,34.22
2022-09-14T04:10:58.640Z,31.35
2022-09-14T04:13:24.887Z,29.20
2022-09-14T04:15:58.150Z,31.23
2022-09-14T04:18:25.253Z,30.15
2022-09-14T04:20:58.140Z,32.63
2022-09-14T04:23:25.361Z,28.45
2022-09-14T04:25:52.424Z,27.77
2022-09-14T04:28:20.422Z,28.48
2022-09-14T04:31:01.012Z,32.45
2022-09-14T04:33:29.932Z,28.77
2022-09-14T04:35:57.641Z,30.55
2022-09-14T04:38:24.169Z,30.13
2022-09-14T04:40:50.357Z,32.78
2022-09-14T04:43:16.563Z,33.83
2022-09-14T04:45:42.719Z,33.67
2022-09-14T04:48:08.953Z,34.83
2022-09-14T04:50:35.169Z,31.75
2022-09-14T04:53:01.644Z,31.48
2022-09-14T04:55:27.900Z,29.30
2022-09-14T04:57:54.166Z,33.88
2022-09-14T05:00:20.826Z,35.35
2022-09-14T05:02:47.122Z,33.13
2022-09-14T05:05:13.339Z,33.05
2022-09-14T05:07:39.634Z,33.13
2022-09-14T05:10:06.133Z,32.80
2022-09-14T05:12:32.362Z,32.33
2022-09-14T05:14:58.673Z,32.38
2022-09-14T05:17:24.854Z,32.05
2022-09-14T05:19:51.128Z,32.42
2022-09-14T05:22:17.392Z,36.20
2022-09-14T05:24:43.670Z,31.88
2022-09-14T05:27:09.868Z,32.92
2022-09-14T05:29:36.085Z,34.50
2022-09-14T05:32:02.463Z,34.03
2022-09-14T05:34:28.728Z,30.75
2022-09-14T05:36:54.948Z,29.83
2022-09-14T05:39:23.391Z,27.30
2022-09-14T05:41:50.132Z,26.30
2022-09-14T05:44:17.231Z,24.67
2022-09-14T05:46:43.524Z,26.30
2022-09-14T05:49:09.742Z,26.08
2022-09-14T05:51:36.675Z,23.40
2022-09-14T05:54:09.172Z,25.95
2022-09-14T05:56:35.395Z,23.67
2022-09-14T05:59:01.699Z,27.27
2022-09-14T06:01:29.313Z,27.77
2022-09-14T06:03:56.677Z,26.63
2022-09-14T06:06:23.463Z,28.08
2022-09-14T06:08:55.004Z,26.60
2022-09-14T06:11:22.433Z,27.48
2022-09-14T06:13:49.785Z,25.92
2022-09-14T06:16:17.067Z,27.33
2022-09-14T06:18:43.805Z,30.60
2022-09-14T06:21:19.688Z,28.58
2022-09-14T06:23:46.510Z,29.05
2022-09-14T06:26:13.290Z,31.02
2022-09-14T06:28:39.649Z,31.98
2022-09-14T06:31:07.693Z,29.65
2022-09-14T06:33:34.253Z,30.52
2022-09-14T06:36:02.402Z,30.73
2022-09-14T06:38:29.119Z,29.88
2022-09-14T06:40:59.555Z,29.23
2022-09-14T06:43:30.906Z,25.73
2022-09-14T06:45:58.069Z,26.30
2022-09-14T06:48:24.608Z,26.80
2022-09-14T06:50:51.070Z,23.20
2022-09-14T06:53:17.325Z,23.48
2022-09-14T06:55:45.264Z,21.30
2022-09-14T06:58:11.573Z,16.23
2022-09-14T07:00:37.903Z,16.63
2022-09-14T07:03:04.459Z,17.05
2022-09-14T07:05:30.911Z,14.35
2022-09-14T07:07:57.469Z,13.35
2022-09-14T07:10:27.883Z,13.23
2022-09-14T07:12:54.802Z,13.77
2022-09-14T07:15:21.780Z,13.02
2022-09-14T07:17:48.040Z,13.13
2022-09-14T07:20:15.498Z,14.77
2022-09-14T07:22:41.876Z,13.73
2022-09-14T07:25:08.729Z,14.90
2022-09-14T07:27:34.970Z,14.07
2022-09-14T07:30:01.220Z,15.75
2022-09-14T07:32:27.722Z,15.75
2022-09-14T07:34:53.995Z,14.30
2022-09-14T07:37:20.220Z,14.90
2022-09-14T07:39:46.425Z,16.05
2022-09-14T07:42:12.666Z,15.10
2022-09-14T07:44:38.841Z,15.18
2022-09-14T07:47:05.045Z,15.07
2022-09-14T07:49:31.242Z,15.25
2022-09-14T07:51:57.507Z,15.00
2022-09-14T07:54:23.744Z,14.10
2022-09-14T07:56:50.499Z,13.95
2022-09-14T07:59:34.962Z,14.75
2022-09-14T08:02:02.242Z,13.77
2022-09-14T08:04:28.491Z,14.98
2022-09-14T08:06:54.895Z,15.55
2022-09-14T08:09:21.126Z,15.25
2022-09-14T08:11:48.433Z,15.60
2022-09-14T08:14:15.401Z,15.18
2022-09-14T08:16:41.864Z,15.25
2022-09-14T08:19:12.119Z,14.55
2022-09-14T08:21:41.720Z,12.32
2022-09-14T08:24:12.624Z,14.80
2022-09-14T08:26:40.659Z,14.10
2022-09-14T08:29:07.957Z,13.63
2022-09-14T08:31:38.753Z,12.60
2022-09-14T08:34:05.282Z,11.65
2022-09-14T08:36:33.208Z,12.35
2022-09-14T08:39:01.158Z,14.48
2022-09-14T08:41:45.943Z,11.32
2022-09-14T08:44:18.179Z,12.50
2022-09-14T08:46:49.557Z,12.57
2022-09-14T08:49:33.753Z,12.07
2022-09-14T08:51:59.970Z,11.18
2022-09-14T08:54:26.191Z,11.88
2022-09-14T08:56:57.051Z,10.60
2022-09-14T08:59:26.615Z,11.63
2022-09-14T09:01:57.897Z,11.10
2022-09-14T09:04:37.451Z,11.45
2022-09-14T09:07:09.706Z,13.00
2022-09-14T09:09:38.737Z,13.23
2022-09-14T09:12:05.180Z,13.82
2022-09-14T09:14:33.958Z,13.27
2022-09-14T09:17:01.613Z,14.43
2022-09-14T09:19:38.223Z,13.02
2022-09-14T09:22:06.396Z,15.13
2022-09-14T09:24:37.559Z,14.88
2022-09-14T09:27:13.799Z,15.40
2022-09-14T09:29:40.333Z,16.77
2022-09-14T09:32:08.680Z,17.52
2022-09-14T09:34:35.384Z,18.90
2022-09-14T09:37:01.723Z,20.15
2022-09-14T09:39:31.778Z,18.08
2022-09-14T09:41:57.967Z,18.83
2022-09-14T09:44:24.200Z,18.48
2022-09-14T09:46:51.082Z,17.95
2022-09-14T09:49:30.376Z,18.52
2022-09-14T09:52:05.827Z,18.75
2022-09-14T09:54:33.105Z,19.15
2022-09-14T09:57:00.842Z,18.92
2022-09-14T09:59:30.468Z,19.27
2022-09-14T10:02:13.882Z,19.20
2022-09-14T10:04:54.957Z,18.88
2022-09-14T10:07:22.145Z,20.63
2022-09-14T10:10:01.427Z,19.30
2022-09-14T10:12:28.612Z,19.30
2022-09-14T10:15:04.917Z,20.58
2022-09-14T10:17:31.357Z,20.30
2022-09-14T10:19:58.404Z,20.30
2022-09-14T10:22:35.693Z,18.85
2022-09-14T10:25:04.196Z,17.23
2022-09-14T10:27:36.996Z,14.88
2022-09-14T10:30:05.409Z,14.82
2022-09-14T10:32:33.050Z,15.52
2022-09-14T10:34:59.444Z,13.35
2022-09-14T10:37:31.974Z,14.07
2022-09-14T10:40:18.614Z,13.48
2022-09-14T10:42:50.348Z,13.30
2022-09-14T10:45:24.219Z,13.05
2022-09-14T10:48:06.222Z,12.52
2022-09-14T10:50:41.155Z,12.40
2022-09-14T10:53:19.760Z,12.77
2022-09-14T10:56:05.792Z,12.32
2022-09-14T10:58:42.022Z,11.98
2022-09-14T11:01:37.661Z,11.88
2022-09-14T11:06:41.695Z,10.57
2022-09-14T11:09:11.063Z,10.95
2022-09-14T11:11:45.689Z,12.65
2022-09-14T11:14:17.518Z,13.15
2022-09-14T11:16:47.539Z,12.35
2022-09-14T11:19:21.532Z,12.05
2022-09-14T11:22:03.344Z,10.60
2022-09-14T11:24:38.735Z,11.25
2022-09-14T11:27:09.607Z,10.57
2022-09-14T11:29:43.075Z,10.30
2022-09-14T11:32:23.617Z,10.63
2022-09-14T11:35:16.057Z,10.43
2022-09-14T11:37:48.211Z,10.13
2022-09-14T11:40:16.493Z,10.85
2022-09-14T11:42:52.077Z,11.23
2022-09-14T11:45:22.962Z,11.13
2022-09-14T11:47:55.186Z,10.80
2022-09-14T11:50:23.766Z,10.88
2022-09-14T11:52:55.658Z,11.27
2022-09-14T11:55:22.076Z,10.68
2022-09-14T11:57:48.676Z,11.15
2022-09-14T12:00:24.068Z,12.43
2022-09-14T12:03:14.067Z,13.23
2022-09-14T12:05:41.170Z,12.93
2022-09-14T12:08:26.022Z,11.77
2022-09-14T12:11:02.539Z,11.13
2022-09-14T12:13:28.782Z,11.48
2022-09-14T12:16:05.318Z,10.82
2022-09-14T12:18:32.007Z,10.90
2022-09-14T12:21:01.047Z,11.85
2022-09-14T12:23:32.081Z,11.38
2022-09-14T12:26:04.375Z,11.38
2022-09-14T12:28:39.649Z,10.73
2022-09-14T12:31:08.646Z,10.82
2022-09-14T12:33:34.909Z,9.32
2022-09-14T12:36:11.290Z,9.38
2022-09-14T12:38:37.783Z,8.40
2022-09-14T12:41:10.035Z,8.15
2022-09-14T12:43:36.213Z,8.10
2022-09-14T12:46:11.591Z,8.70
2022-09-14T12:48:47.142Z,9.55
2022-09-14T12:51:32.408Z,9.30
2022-09-14T12:56:27.883Z,8.07
2022-09-14T12:58:59.795Z,7.50
2022-09-14T13:01:48.928Z,7.10
2022-09-14T13:04:28.766Z,6.25
2022-09-14T13:06:55.912Z,7.10
2022-09-14T13:09:23.352Z,6.90
2022-09-14T13:11:54.081Z,6.53
2022-09-14T13:14:22.472Z,6.60
2022-09-14T13:16:49.910Z,6.90
2022-09-14T13:19:20.442Z,7.13
2022-09-14T13:21:50.714Z,7.40
2022-09-14T13:24:26.097Z,7.13
2022-09-14T13:26:53.392Z,6.57
2022-09-14T13:29:20.606Z,6.30
2022-09-14T13:31:46.987Z,6.85
2022-09-14T13:34:21.681Z,6.18
2022-09-14T13:36:48.122Z,6.53
2022-09-14T13:39:37.005Z,6.50
2022-09-14T13:42:03.974Z,6.53
2022-09-14T13:44:31.948Z,6.93
2022-09-14T13:46:59.148Z,6.28
2022-09-14T13:49:25.458Z,6.63
2022-09-14T13:51:51.678Z,6.70
2022-09-14T13:54:23.816Z,7.15
2022-09-14T13:57:08.805Z,8.00
2022-09-14T13:59:35.003Z,7.82
2022-09-14T14:02:03.087Z,7.32
2022-09-14T14:04:33.820Z,7.13
2022-09-14T14:07:02.282Z,8.20
2022-09-14T14:09:38.528Z,8.38
2022-09-14T14:12:04.796Z,8.65
2022-09-14T14:14:31.676Z,10.32
2022-09-14T14:17:10.385Z,10.02
2022-09-14T14:19:36.557Z,10.52
2022-09-14T14:22:32.376Z,10.07
2022-09-14T14:25:14.644Z,11.98
2022-09-14T14:27:48.072Z,11.18
2022-09-14T14:30:18.596Z,10.82
2022-09-14T14:32:49.713Z,11.70
2022-09-14T14:35:17.827Z,10.73
2022-09-14T14:37:44.082Z,11.05
2022-09-14T14:40:13.151Z,11.05
2022-09-14T14:42:39.608Z,10.43
2022-09-14T14:45:06.353Z,10.20
2022-09-14T14:47:33.300Z,11.20
2022-09-14T14:49:59.842Z,10.90
2022-09-14T14:52:26.081Z,10.93
2022-09-14T14:54:52.800Z,10.98
2022-09-14T14:57:19.017Z,11.23
2022-09-14T14:59:45.993Z,10.45
2022-09-14T15:02:12.201Z,12.32
2022-09-14T15:04:38.446Z,11.73
2022-09-14T15:07:04.665Z,12.50
2022-09-14T15:09:31.957Z,13.05
2022-09-14T15:11:58.193Z,13.32
2022-09-14T15:14:27.349Z,14.82
2022-09-14T15:16:57.633Z,14.90
2022-09-14T15:19:23.903Z,15.32
2022-09-14T15:21:50.124Z,14.27
2022-09-14T15:24:16.339Z,14.13
2022-09-14T15:26:42.604Z,14.00
2022-09-14T15:29:10.876Z,14.10
2022-09-14T15:31:37.086Z,14.90
2022-09-14T15:34:03.305Z,14.38
2022-09-14T15:36:36.462Z,15.35
2022-09-14T15:39:03.222Z,15.93
2022-09-14T15:41:29.451Z,14.77
2022-09-14T15:43:55.678Z,16.83
2022-09-14T15:46:21.906Z,16.83
2022-09-14T15:48:48.189Z,16.77
2022-09-14T15:51:14.396Z,17.48
2022-09-14T15:53:40.847Z,17.25
2022-09-14T15:56:11.019Z,19.15
2022-09-14T15:58:37.372Z,19.35
2022-09-14T16:01:10.493Z,22.13
2022-09-14T16:03:36.793Z,19.45
2022-09-14T16:06:03.506Z,20.23
2022-09-14T16:08:30.416Z,20.75
2022-09-14T16:10:57.955Z,23.45
2022-09-14T16:13:24.284Z,26.35
2022-09-14T16:15:50.470Z,26.15
2022-09-14T16:18:16.685Z,26.00
2022-09-14T16:20:42.866Z,25.70
2022-09-14T16:23:09.061Z,26.38
2022-09-14T16:25:40.587Z,28.05
2022-09-14T16:28:07.092Z,28.50
2022-09-14T16:30:33.308Z,28.40
2022-09-14T16:33:01.668Z,27.73
2022-09-14T16:35:28.058Z,27.23
2022-09-14T16:37:54.267Z,27.45
2022-09-14T16:40:20.483Z,26.25
2022-09-14T16:42:48.076Z,24.83
2022-09-14T16:45:14.395Z,23.88
2022-09-14T16:47:40.798Z,25.92
2022-09-14T16:50:07.162Z,23.85
2022-09-14T16:52:33.725Z,21.65
2022-09-14T16:54:59.923Z,22.55
2022-09-14T16:57:26.971Z,20.25
2022-09-14T16:59:54.038Z,18.75
2022-09-14T17:02:20.383Z,19.67
2022-09-14T17:04:46.582Z,18.25
2022-09-14T17:07:12.800Z,17.77
2022-09-14T17:09:40.929Z,18.92
2022-09-14T17:12:07.253Z,18.75
2022-09-14T17:14:33.879Z,18.02
2022-09-14T17:17:00.537Z,17.48
2022-09-14T17:19:26.938Z,17.80
2022-09-14T17:21:53.270Z,17.02
2022-09-14T17:24:20.234Z,17.30
2022-09-14T17:26:46.753Z,16.50
2022-09-14T17:29:12.972Z,15.05
2022-09-14T17:31:40.990Z,13.70
2022-09-14T17:34:08.263Z,13.82
2022-09-14T17:36:34.639Z,14.45
2022-09-14T17:39:09.159Z,14.20
2022-09-14T17:41:38.877Z,15.00
2022-09-14T17:44:05.638Z,12.60
2022-09-14T17:46:31.919Z,10.25
2022-09-14T17:48:59.111Z,9.95
2022-09-14T17:51:26.691Z,10.30
2022-09-14T17:53:54.008Z,10.73
2022-09-14T17:56:21.377Z,10.68
2022-09-14T17:58:48.233Z,10.90
2022-09-14T18:01:16.405Z,11.30
2022-09-14T18:03:43.627Z,11.50
2022-09-14T18:06:11.306Z,11.35
2022-09-14T18:08:38.236Z,10.60
2022-09-14T18:11:10.175Z,11.23
2022-09-14T18:13:39.604Z,10.05
2022-09-14T18:16:05.944Z,10.10
2022-09-14T18:18:32.207Z,9.30
2022-09-14T18:20:59.401Z,9.23
2022-09-14T18:23:26.153Z,9.38
2022-09-14T18:25:52.392Z,8.57
2022-09-14T18:28:18.593Z,9.32
2022-09-14T18:30:44.843Z,8.88
2022-09-14T18:33:11.075Z,9.55
2022-09-14T18:35:37.940Z,9.88
2022-09-14T18:38:05.505Z,9.55
2022-09-14T18:40:35.533Z,9.93
2022-09-14T18:43:02.401Z,10.05
2022-09-14T18:45:29.452Z,11.18
2022-09-14T18:47:55.775Z,11.90
2022-09-14T18:50:23.127Z,12.23
2022-09-14T18:52:50.419Z,11.93
2022-09-14T18:55:16.700Z,12.23
2022-09-14T18:57:47.180Z,11.65
2022-09-14T19:00:18.310Z,13.40
2022-09-14T19:02:45.790Z,13.35
2022-09-14T19:05:11.974Z,12.93
2022-09-14T19:07:38.338Z,12.68
2022-09-14T19:10:07.662Z,14.38
2022-09-14T19:12:36.041Z,14.30
2022-09-14T19:15:02.230Z,15.20
2022-09-14T19:17:28.553Z,15.43
2022-09-14T19:19:54.796Z,15.45
2022-09-14T19:22:20.992Z,16.92
2022-09-14T19:24:47.215Z,17.13
2022-09-14T19:27:13.467Z,17.70
2022-09-14T19:29:39.763Z,18.15
2022-09-14T19:32:06.269Z,18.45
2022-09-14T19:34:32.478Z,20.67
2022-09-14T19:36:58.823Z,21.55
2022-09-14T19:39:25.427Z,20.20
2022-09-14T19:41:51.694Z,21.98
2022-09-14T19:44:18.051Z,22.17
2022-09-14T19:46:44.694Z,21.85
2022-09-14T19:49:15.014Z,22.13
2022-09-14T19:51:41.256Z,21.95
2022-09-14T19:54:08.630Z,22.38
2022-09-14T19:56:35.086Z,23.27
2022-09-14T19:59:02.585Z,22.98
2022-09-14T20:01:29.857Z,24.25
2022-09-14T20:03:56.968Z,26.15
2022-09-14T20:06:29.455Z,24.90
2022-09-14T20:08:56.833Z,24.50
2022-09-14T20:11:23.749Z,23.35
2022-09-14T20:13:50.065Z,25.85
2022-09-14T20:16:23.932Z,26.52
2022-09-14T20:18:50.495Z,25.90
2022-09-14T20:21:19.182Z,24.73
2022-09-14T20:24:04.647Z,27.77
2022-09-14T20:26:31.687Z,26.70
2022-09-14T20:28:59.927Z,26.05
2022-09-14T20:31:26.556Z,29.02
2022-09-14T20:33:53.166Z,29.80
2022-09-14T20:36:20.200Z,29.33
2022-09-14T20:38:50.231Z,30.08
2022-09-14T20:41:17.879Z,31.17
2022-09-14T20:43:46.426Z,31.90
2022-09-14T20:46:14.022Z,35.00
2022-09-14T20:48:40.284Z,33.72
2022-09-14T20:51:06.936Z,34.53
2022-09-14T20:53:34.341Z,37.10
2022-09-14T20:56:04.839Z,34.95
2022-09-14T20:58:31.418Z,37.17
2022-09-14T21:01:02.081Z,37.10
2022-09-14T21:03:28.768Z,37.33
2022-09-14T21:05:55.747Z,35.00
2022-09-14T21:08:22.170Z,37.63
2022-09-14T21:10:48.535Z,37.05
2022-09-14T21:13:14.730Z,35.70
2022-09-14T21:15:41.063Z,38.50
2022-09-14T21:18:07.274Z,36.13
2022-09-14T21:20:37.053Z,36.58
2022-09-14T21:23:03.259Z,34.22
2022-09-14T21:25:29.529Z,34.75
2022-09-14T21:27:55.735Z,36.55
2022-09-14T21:30:22.287Z,33.85
2022-09-14T21:32:51.763Z,33.83
2022-09-14T21:35:18.608Z,31.90
2022-09-14T21:37:49.045Z,31.10
2022-09-14T21:40:17.009Z,33.15
2022-09-14T21:42:43.757Z,33.53
2022-09-14T21:45:10.719Z,34.13
2022-09-14T21:47:37.084Z,35.90
2022-09-14T21:50:03.552Z,36.97
2022-09-14T21:52:29.817Z,36.17
2022-09-14T21:54:56.244Z,36.35
2022-09-14T21:57:22.421Z,37.83
2022-09-14T21:59:48.631Z,36.13
2022-09-14T22:02:15.175Z,36.95
2022-09-14T22:04:41.363Z,37.13
2022-09-14T22:07:07.580Z,36.83
2022-09-14T22:09:33.774Z,39.60
2022-09-14T22:11:59.995Z,40.08
2022-09-14T22:14:27.186Z,40.88
2022-09-14T22:16:53.964Z,39.38
2022-09-14T22:19:28.055Z,41.85
2022-09-14T22:21:54.570Z,41.58
2022-09-14T22:24:22.644Z,39.95
2022-09-14T22:26:50.221Z,38.47
2022-09-14T22:29:17.075Z,41.63
2022-09-14T22:31:44.078Z,40.72
2022-09-14T22:34:10.498Z,40.30
2022-09-14T22:36:37.108Z,40.25
2022-09-14T22:39:04.298Z,39.83
2022-09-14T22:41:30.566Z,39.65
2022-09-14T22:43:57.035Z,39.28
2022-09-14T22:46:23.837Z,40.00
2022-09-14T22:48:50.880Z,38.42
2022-09-14T22:51:18.929Z,39.85
2022-09-14T22:53:45.173Z,40.58
2022-09-14T22:56:15.825Z,39.90
2022-09-14T22:58:42.361Z,38.88
2022-09-14T23:01:13.765Z,40.15
2022-09-14T23:03:40.012Z,40.00
2022-09-14T23:06:06.293Z,41.75
2022-09-14T23:08:35.149Z,41.60
2022-09-14T23:11:05.463Z,40.25
2022-09-14T23:13:34.353Z,44.05
2022-09-14T23:16:01.023Z,36.50
2022-09-14T23:18:27.776Z,40.75
2022-09-14T23:20:54.099Z,36.47
2022-09-14T23:23:20.331Z,38.47
2022-09-14T23:25:46.529Z,36.13
2022-09-14T23:28:12.785Z,35.42
2022-09-14T23:30:39.489Z,36.22
2022-09-14T23:33:05.824Z,35.53
2022-09-14T23:35:34.698Z,34.53
2022-09-14T23:38:03.842Z,34.00
2022-09-14T23:40:30.312Z,32.38
2022-09-14T23:42:56.536Z,33.95
2022-09-14T23:45:22.763Z,32.42
2022-09-14T23:47:48.979Z,32.35
2022-09-14T23:50:15.468Z,35.00
2022-09-14T23:52:41.737Z,34.35
2022-09-14T23:55:08.268Z,33.55
2022-09-14T23:57:34.582Z,35.78
